createdAt,value
2023-02-11T00:03:43.928Z,-0.06
2023-02-11T00:08:46.764Z,-0.10
2023-02-11T00:13:49.529Z,0.34
2023-02-11T00:18:54.199Z,0.37
2023-02-11T00:23:59.984Z,-0.61
2023-02-11T00:29:03.945Z,-0.03
2023-02-11T00:34:07.168Z,-0.49
2023-02-11T00:39:09.848Z,-0.85
2023-02-11T00:44:12.108Z,-0.66
2023-02-11T00:49:15.795Z,-0.94
2023-02-11T00:54:18.101Z,-0.69
2023-02-11T00:59:20.728Z,-0.20
2023-02-11T01:04:23.201Z,-1.08
2023-02-11T01:09:27.603Z,-1.40
2023-02-11T01:14:29.956Z,-1.23
2023-02-11T01:19:32.337Z,-1.16
2023-02-11T01:24:34.737Z,-1.38
2023-02-11T01:29:39.313Z,-0.72
2023-02-11T01:34:41.678Z,-0.12
2023-02-11T01:39:44.102Z,-0.60
2023-02-11T01:44:52.665Z,-0.39
2023-02-11T01:49:59.634Z,-1.07
2023-02-11T01:55:28.684Z,-0.20
2023-02-11T02:00:37.747Z,-1.43
2023-02-11T02:05:56.063Z,-1.34
2023-02-11T02:11:01.071Z,-1.45
2023-02-11T02:16:09.814Z,-1.40
2023-02-11T02:21:34.546Z,-1.40
2023-02-11T02:26:58.899Z,-0.37
2023-02-11T02:32:38.373Z,-1.15
2023-02-11T02:37:42.075Z,-1.09
2023-02-11T02:42:45.181Z,-1.21
2023-02-11T02:47:47.494Z,-0.94
2023-02-11T02:53:12.707Z,-0.88
2023-02-11T02:58:50.157Z,-0.88
2023-02-11T03:04:10.033Z,-0.62
2023-02-11T03:09:26.548Z,-0.91
2023-02-11T03:14:30.619Z,-0.85
2023-02-11T03:19:39.363Z,-1.27
2023-02-11T03:24:42.709Z,-0.52
2023-02-11T03:30:01.095Z,-1.45
2023-02-11T03:35:24.659Z,-0.60
2023-02-11T03:40:32.942Z,-0.72
2023-02-11T03:45:38.084Z,-1.34
2023-02-11T03:50:42.063Z,-0.72
2023-02-11T03:55:48.380Z,-0.99
2023-02-11T04:00:50.902Z,-1.61
2023-02-11T04:05:53.215Z,-1.76
2023-02-11T04:10:55.467Z,-2.11
2023-02-11T04:15:57.787Z,-1.95
2023-02-11T04:20:59.965Z,-1.85
2023-02-11T04:26:02.316Z,-1.68
2023-02-11T04:31:04.947Z,-1.40
2023-02-11T04:36:07.855Z,-1.98
2023-02-11T04:41:10.085Z,-0.93
2023-02-11T04:46:12.446Z,-1.95
2023-02-11T04:51:15.367Z,-2.09
2023-02-11T04:56:17.689Z,-1.56
2023-02-11T05:01:20.035Z,-1.87
2023-02-11T05:06:22.357Z,-2.80
2023-02-11T05:11:26.275Z,-2.99
2023-02-11T05:16:28.680Z,-2.89
2023-02-11T05:21:31.129Z,-2.91
2023-02-11T05:26:33.586Z,-2.35
2023-02-11T05:31:36.003Z,-1.99
2023-02-11T05:36:38.379Z,-2.15
2023-02-11T05:41:40.771Z,-1.30
2023-02-11T05:46:43.170Z,-2.10
2023-02-11T05:51:45.530Z,-1.27
2023-02-11T05:56:47.761Z,-1.01
2023-02-11T06:01:50.037Z,-1.38
2023-02-11T06:06:52.223Z,-1.10
2023-02-11T06:11:54.648Z,-1.57
2023-02-11T06:16:57.007Z,-0.80
2023-02-11T06:22:00.456Z,-1.83
2023-02-11T06:27:04.903Z,-1.15
2023-02-11T06:32:10.107Z,-1.95
2023-02-11T06:37:18.431Z,-1.08
2023-02-11T06:42:20.763Z,-0.83
2023-02-11T06:47:23.074Z,-0.93
2023-02-11T06:52:25.346Z,-1.84
2023-02-11T06:57:27.586Z,-0.90
2023-02-11T07:02:29.864Z,-1.03
2023-02-11T07:07:34.364Z,-1.16
2023-02-11T07:12:36.742Z,-1.40
2023-02-11T07:17:39.054Z,-1.08
2023-02-11T07:22:41.297Z,-0.90
2023-02-11T07:27:43.631Z,-1.02
2023-02-11T07:32:45.881Z,-0.64
2023-02-11T07:37:48.158Z,-0.23
2023-02-11T07:42:50.434Z,0.03
2023-02-11T07:47:52.690Z,0.04
2023-02-11T07:52:54.947Z,0.62
2023-02-11T07:57:57.737Z,0.95
2023-02-11T08:03:00.225Z,-0.06
2023-02-11T08:08:02.388Z,0.24
2023-02-11T08:13:04.639Z,-0.15
2023-02-11T08:18:07.532Z,0.13
2023-02-11T08:23:09.800Z,0.38
2023-02-11T08:28:12.134Z,0.34
2023-02-11T08:33:14.381Z,0.79
2023-02-11T08:38:16.681Z,0.76
2023-02-11T08:43:18.807Z,0.95
2023-02-11T08:48:20.999Z,0.97
2023-02-11T08:53:23.593Z,1.42
2023-02-11T08:58:25.918Z,0.62
2023-02-11T09:03:28.350Z,0.57
2023-02-11T09:08:30.602Z,1.07
2023-02-11T09:13:34.058Z,1.09
2023-02-11T09:18:36.333Z,1.48
2023-02-11T09:23:38.671Z,1.28
2023-02-11T09:28:40.991Z,1.64
2023-02-11T09:33:49.178Z,1.88
2023-02-11T09:38:52.843Z,1.93
2023-02-11T09:44:05.400Z,1.94
2023-02-11T09:49:16.456Z,1.90
2023-02-11T09:54:37.084Z,2.64
2023-02-11T09:59:40.907Z,3.21
2023-02-11T10:05:28.378Z,3.33
2023-02-11T10:10:54.605Z,3.79
2023-02-11T10:16:27.820Z,4.29
2023-02-11T10:21:52.935Z,4.33
2023-02-11T10:26:55.366Z,4.56
2023-02-11T10:31:59.580Z,4.92
2023-02-11T10:37:01.987Z,5.00
2023-02-11T10:42:11.252Z,5.50
2023-02-11T10:47:23.039Z,5.02
2023-02-11T10:52:28.353Z,5.06
2023-02-11T10:57:40.079Z,6.20
2023-02-11T11:02:52.566Z,5.61
2023-02-11T11:08:02.769Z,5.41
2023-02-11T11:13:05.231Z,6.09
2023-02-11T11:18:22.475Z,5.53
2023-02-11T11:23:26.246Z,7.45
2023-02-11T11:28:31.983Z,7.54
2023-02-11T11:33:37.199Z,7.51
2023-02-11T11:39:08.787Z,7.67
2023-02-11T11:44:33.964Z,8.38
2023-02-11T11:49:43.438Z,7.89
2023-02-11T11:54:55.907Z,7.54
2023-02-11T11:59:59.327Z,8.51
2023-02-11T12:05:07.814Z,8.29
2023-02-11T12:10:38.200Z,9.06
2023-02-11T12:16:27.340Z,8.33
2023-02-11T12:22:03.706Z,8.87
2023-02-11T12:27:44.142Z,9.45
2023-02-11T12:33:17.235Z,9.62
2023-02-11T12:39:05.456Z,9.45
2023-02-11T12:44:35.617Z,8.89
2023-02-11T12:56:03.529Z,9.73
2023-02-11T13:01:16.064Z,10.11
2023-02-11T13:06:35.402Z,10.16
2023-02-11T13:11:52.533Z,10.38
2023-02-11T13:16:58.542Z,11.06
2023-02-11T13:22:20.614Z,10.90
2023-02-11T13:27:50.549Z,10.98
2023-02-11T13:32:55.834Z,10.53
2023-02-11T13:38:01.578Z,11.28
2023-02-11T13:43:07.808Z,11.23
2023-02-11T13:48:24.604Z,10.82
2023-02-11T13:53:28.233Z,9.98
2023-02-11T13:58:30.328Z,9.60
2023-02-11T14:03:57.507Z,9.90
2023-02-11T14:09:15.602Z,9.75
2023-02-11T14:14:23.830Z,9.73
2023-02-11T14:19:46.120Z,10.11
2023-02-11T14:25:02.485Z,9.78
2023-02-11T14:30:48.804Z,11.18
2023-02-11T14:36:22.946Z,10.47
2023-02-11T14:41:31.441Z,10.76
2023-02-11T14:46:34.616Z,9.94
2023-02-11T14:51:40.919Z,10.57
2023-02-11T14:56:44.791Z,9.78
2023-02-11T15:01:51.823Z,9.86
2023-02-11T15:06:55.345Z,9.58
2023-02-11T15:11:58.736Z,9.53
2023-02-11T15:17:07.910Z,9.63
2023-02-11T15:22:30.382Z,9.52
2023-02-11T15:27:48.276Z,9.97
2023-02-11T15:33:19.728Z,10.20
2023-02-11T15:38:21.908Z,10.16
2023-02-11T15:43:24.168Z,10.09
2023-02-11T15:48:53.595Z,10.38
2023-02-11T15:54:03.377Z,10.11
2023-02-11T15:59:20.420Z,10.05
2023-02-11T16:04:26.768Z,9.79
2023-02-11T16:09:36.086Z,9.72
2023-02-11T16:14:39.459Z,9.33
2023-02-11T16:19:46.777Z,9.20
2023-02-11T16:24:52.456Z,8.96
2023-02-11T16:29:55.036Z,9.11
2023-02-11T16:35:00.972Z,8.30
2023-02-11T16:40:03.166Z,8.43
2023-02-11T16:45:06.234Z,7.72
2023-02-11T16:50:12.362Z,7.46
2023-02-11T16:55:15.275Z,6.96
2023-02-11T17:00:18.290Z,6.37
2023-02-11T17:05:23.331Z,6.65
2023-02-11T17:10:25.936Z,6.68
2023-02-11T17:15:28.135Z,5.80
2023-02-11T17:20:30.373Z,6.58
2023-02-11T17:25:32.794Z,5.74
2023-02-11T17:30:35.703Z,5.52
2023-02-11T17:35:40.672Z,5.38
2023-02-11T17:40:42.991Z,5.15
2023-02-11T17:45:45.123Z,4.97
2023-02-11T17:50:47.363Z,5.13
2023-02-11T17:55:49.845Z,5.18
2023-02-11T18:00:52.368Z,4.29
2023-02-11T18:05:54.553Z,4.30
2023-02-11T18:10:56.875Z,4.22
2023-02-11T18:16:04.182Z,3.87
2023-02-11T18:21:09.634Z,3.74
2023-02-11T18:26:13.961Z,3.98
2023-02-11T18:31:17.215Z,3.52
2023-02-11T18:36:21.217Z,3.44
2023-02-11T18:41:23.519Z,3.69
2023-02-11T18:46:26.093Z,3.80
2023-02-11T18:51:31.676Z,3.87
2023-02-11T18:56:34.055Z,3.51
2023-02-11T19:01:36.591Z,3.05
2023-02-11T19:06:39.361Z,2.70
2023-02-11T19:11:47.374Z,3.40
2023-02-11T19:16:52.987Z,3.81
2023-02-11T19:21:55.898Z,3.66
2023-02-11T19:27:02.609Z,3.25
2023-02-11T19:32:06.434Z,2.79
2023-02-11T19:37:12.738Z,2.55
2023-02-11T19:42:15.209Z,1.94
2023-02-11T19:47:17.906Z,2.40
2023-02-11T19:52:20.170Z,2.24
2023-02-11T19:57:22.318Z,2.45
2023-02-11T20:02:24.996Z,2.56
2023-02-11T20:07:27.322Z,2.38
2023-02-11T20:12:29.653Z,3.06
2023-02-11T20:17:32.139Z,2.64
2023-02-11T20:22:34.572Z,3.26
2023-02-11T20:27:36.871Z,2.80
2023-02-11T20:32:39.039Z,2.59
2023-02-11T20:37:44.033Z,2.12
2023-02-11T20:42:46.381Z,2.59
2023-02-11T20:47:48.833Z,2.16
2023-02-11T20:52:51.138Z,2.48
2023-02-11T20:57:53.510Z,2.50
2023-02-11T21:02:55.855Z,2.26
2023-02-11T21:07:58.098Z,1.61
2023-02-11T21:13:00.517Z,2.47
2023-02-11T21:18:02.756Z,1.46
2023-02-11T21:23:04.893Z,1.16
2023-02-11T21:28:07.287Z,1.76
2023-02-11T21:33:09.674Z,2.12
2023-02-11T21:38:12.396Z,1.28
2023-02-11T21:43:14.570Z,1.33
2023-02-11T21:48:18.079Z,1.04
2023-02-11T21:53:20.362Z,1.24
2023-02-11T21:58:22.821Z,1.23
2023-02-11T22:03:25.257Z,1.57
2023-02-11T22:08:27.433Z,1.40
2023-02-11T22:13:29.628Z,1.63
2023-02-11T22:18:32.112Z,2.05
2023-02-11T22:23:35.305Z,2.00
2023-02-11T22:28:40.645Z,1.36
2023-02-11T22:33:44.153Z,0.98
2023-02-11T22:38:46.993Z,0.86
2023-02-11T22:43:49.801Z,1.00
2023-02-11T22:48:53.062Z,1.03
2023-02-11T22:54:01.457Z,1.23
2023-02-11T22:59:08.017Z,1.13
2023-02-11T23:04:14.791Z,0.81
2023-02-11T23:09:17.171Z,0.94
2023-02-11T23:14:19.420Z,0.85
2023-02-11T23:19:21.642Z,1.42
2023-02-11T23:24:23.811Z,0.77
2023-02-11T23:29:26.088Z,1.25
2023-02-11T23:34:28.433Z,1.14
2023-02-11T23:39:30.641Z,1.20
2023-02-11T23:44:32.989Z,1.06
2023-02-11T23:49:35.423Z,0.97
2023-02-11T23:54:37.760Z,1.08
2023-02-11T23:59:41.373Z,1.47
